BUCHANAN DAM (BUC)

Elevation: 450' · CHOWCHILLA R basin · Operator: US Army Corps of Engineers

Provisional data, subject to change.
Query executed Friday at 7:28:31   clock

Select a sensor type for a plot of data.
Note: Reservoir Flows are daily averages.

Earlier

Date RES ELE    STORAGE    RES CHG    TOC STO    ABV TOC    OUTFLOW    INFLOW    PPT INC    TEMP MN    TEMP MX   
 FEET   AF   AF   AF   AF   CFS   CFS   INCHES   DEG F   DEG F  
09/25/2014 469.53 11940 -16 137640 -125700 0 -5 -- 17 26
09/26/2014 469.51 11929 -11 137140 -125211 0 -2 -- 16 26
09/27/2014 469.49 11918 -11 136650 -124732 0 -2 -- 11 26
09/28/2014 469.48 11913 -5 136150 -124237 0 -0 -- 14 24
09/29/2014 469.46 11903 -10 135660 -123757 0 -2 -- 11 28
09/30/2014 469.45 11897 -6 135160 -123263 0 1 -- 14 29
10/01/2014 469.43 11887 -10 134670 -122783 0 -2 -- 12 30
10/02/2014 469.42 11881 -6 134180 -122299 0 1 -- -18 34
10/03/2014 469.40 11871 -10 133680 -121809 0 -1 -- 15 35
10/04/2014 469.39 11866 -5 133190 -121324 0 1 -- 16 36
10/05/2014 469.38 11860 -6 132690 -120830 0 1 -- 15 36
10/06/2014 469.36 11850 -10 132200 -120350 0 -1 -- 17 37
10/07/2014 469.34 11839 -11 131700 -119861 0 -2 -- 17 36
10/08/2014 469.32 11829 -10 131210 -119381 0 -1 -- 16 34
10/09/2014 469.30 11818 -11 130710 -118892 0 -2 -- -18 33
10/10/2014 469.29 11813 -5 130220 -118407 0 1 -- 13 30
10/11/2014 469.28 11807 -6 129730 -117923 0 0 -- 14 31
10/12/2014 469.27 11802 -5 129231 -117428 0 1 -- 13 32
10/13/2014 469.25 11792 -10 128736 -116948 0 -1 -- 15 36
10/14/2014 469.23 11781 -11 128242 -116459 0 -1 -- 15 34
10/15/2014 469.23 11781 0 127747 -12762956 0 2 -- 16 25
10/16/2014 469.21 11771 -10 127253 -115482 0 -3 -- 13 26
10/17/2014 469.21 11771 0 126758 -114987 0 2 -- 12 26
10/18/2014 469.19 11760 -11 126264 -114504 0 -3 -- 10 27
10/19/2014 469.18 11755 -5 125769 -114014 0 0 -- 12 29
10/20/2014 469.16 11744 -11 125275 -113531 0 -3 -- 11 27
10/21/2014 469.15 11739 -5 124780 -113041 0 0 -- 12 23
10/22/2014 113.14 0 -11739 124286 -124286 0 -- -- 9 26
10/23/2014 113.15 0 0 123791 -123791 -- -- -- -- --
10/24/2014 -- -- -- -- -- -- -- -- -- --

Later | Latest

Warning! This data is preliminary and subject to revision.

Show BUC Map | Plot BUC Data | 1 Month BUC Data | Real-Time BUC Data | BUC Info